Time;durP1;ratioP1;P1;durP2;ratioP2;P2;SDS_P1;SDS_P2;PMS_P1;PMS_P2;Temp;Humidity;BMP_temperature;BMP_pressure;BME280_temperature;BME280_humidity;BME280_pressure;Samples;Min_cycle;Max_cycle;Signal;HPM_P1;HPM_P2
2022/03/09 00:00:13;;;;;;;15.33;9.87;;;;;;;-2.12;100.00;96809.16;5027793;28;103704;-63
2022/03/09 00:02:40;;;;;;;13.97;10.50;;;;;;;-1.99;100.00;96808.66;5028007;28;104310;-63
2022/03/09 00:05:08;;;;;;;16.93;10.73;;;;;;;-1.89;100.00;96812.75;5061427;27;101946;-63
2022/03/09 00:07:34;;;;;;;17.73;11.20;;;;;;;-1.96;100.00;96805.72;5027356;28;104848;-63
2022/03/09 00:10:05;;;;;;;16.57;10.97;;;;;;;-1.86;100.00;96809.78;5030482;28;105833;-63
2022/03/09 00:12:32;;;;;;;19.03;11.10;;;;;;;-2.00;100.00;96807.84;5027630;28;103751;-63
2022/03/09 00:14:59;;;;;;;18.57;11.07;;;;;;;-2.25;100.00;96805.41;5026889;28;105395;-63
2022/03/09 00:17:26;;;;;;;16.27;10.80;;;;;;;-2.44;100.00;96806.50;5027435;28;101872;-63
2022/03/09 00:19:53;;;;;;;20.10;11.83;;;;;;;-2.31;100.00;96812.06;5028755;28;102595;-63
2022/03/09 00:22:19;;;;;;;19.87;12.73;;;;;;;-2.17;100.00;96813.22;5026737;28;105064;-63
2022/03/09 00:24:47;;;;;;;20.23;12.50;;;;;;;-2.02;100.00;96801.16;5027339;28;101857;-63
2022/03/09 00:27:15;;;;;;;16.43;10.50;;;;;;;-2.04;100.00;96803.09;5027295;28;104904;-63
2022/03/09 00:29:42;;;;;;;16.70;11.13;;;;;;;-2.12;100.00;96803.13;5026880;28;105038;-63
2022/03/09 00:32:11;;;;;;;17.50;10.70;;;;;;;-2.15;100.00;96803.44;5030513;28;101873;-63
2022/03/09 00:34:39;;;;;;;17.00;11.00;;;;;;;-2.26;100.00;96812.38;5026570;28;105152;-63
2022/03/09 00:37:05;;;;;;;15.83;10.67;;;;;;;-2.54;100.00;96805.00;5028553;28;101845;-63
2022/03/09 00:39:33;;;;;;;16.43;10.10;;;;;;;-2.69;100.00;96812.63;5027333;28;105145;-63
2022/03/09 00:42:00;;;;;;;13.97;9.53;;;;;;;-2.73;100.00;96813.91;5026888;28;104268;-63
2022/03/09 00:44:29;;;;;;;16.63;9.77;;;;;;;-2.52;100.00;96803.88;5027976;28;101980;-63
2022/03/09 00:46:56;;;;;;;16.53;10.40;;;;;;;-2.30;100.00;96802.47;5028136;28;105064;-63
2022/03/09 00:49:23;;;;;;;15.77;10.00;;;;;;;-2.25;100.00;96803.59;5026400;28;105226;-63
2022/03/09 00:51:50;;;;;;;14.57;9.70;;;;;;;-2.27;100.00;96808.16;5026954;28;101724;-63
2022/03/09 00:54:17;;;;;;;14.27;9.17;;;;;;;-2.27;100.00;96815.16;5033732;27;105084;-63
2022/03/09 00:56:44;;;;;;;13.73;8.90;;;;;;;-2.73;100.00;96806.09;5031673;28;101926;-63
2022/03/09 00:59:11;;;;;;;15.30;9.90;;;;;;;-2.72;100.00;96807.75;5031476;28;103663;-63
2022/03/09 01:01:39;;;;;;;13.03;9.70;;;;;;;-2.63;100.00;96808.59;5030696;28;105112;-63
2022/03/09 01:04:06;;;;;;;16.17;9.97;;;;;;;-2.57;100.00;96798.31;5031190;28;102283;-63
2022/03/09 01:06:33;;;;;;;14.80;9.60;;;;;;;-2.51;100.00;96807.31;5030511;28;105213;-63
2022/03/09 01:09:01;;;;;;;13.23;9.30;;;;;;;-2.67;100.00;96797.66;5030548;28;105591;-63
2022/03/09 01:11:29;;;;;;;13.73;9.13;;;;;;;-2.52;100.00;96798.66;5030990;28;101889;-63
2022/03/09 01:13:57;;;;;;;13.77;8.87;;;;;;;-2.57;100.00;96800.94;5031318;28;104166;-63
2022/03/09 01:16:24;;;;;;;14.87;10.10;;;;;;;-2.64;100.00;96806.94;5034034;28;105342;-63
2022/03/09 01:18:52;;;;;;;14.97;9.93;;;;;;;-2.89;100.00;96813.84;5031551;28;102646;-63
2022/03/09 01:21:19;;;;;;;14.40;9.33;;;;;;;-3.02;100.00;96810.88;5031781;28;102926;-63
2022/03/09 01:23:48;;;;;;;18.50;10.33;;;;;;;-2.74;100.00;96816.69;5031144;28;101908;-63
2022/03/09 01:26:15;;;;;;;14.23;9.63;;;;;;;-2.62;100.00;96810.22;5030121;28;104877;-63
2022/03/09 01:28:42;;;;;;;15.00;9.90;;;;;;;-2.85;100.00;96815.16;5031892;28;103200;-63
2022/03/09 01:31:09;;;;;;;14.57;9.60;;;;;;;-2.92;100.00;96816.78;5030379;28;101873;-63
2022/03/09 01:33:36;;;;;;;12.77;9.43;;;;;;;-2.79;100.00;96819.75;5030845;28;105166;-63
2022/03/09 01:36:04;;;;;;;12.43;8.87;;;;;;;-2.67;100.00;96821.06;5030007;28;105110;-63
2022/03/09 01:38:32;;;;;;;14.17;9.03;;;;;;;-2.63;100.00;96819.00;5034379;28;101912;-63
2022/03/09 01:41:00;;;;;;;13.93;9.23;;;;;;;-2.64;100.00;96817.34;5030259;28;105461;-63
2022/03/09 01:43:28;;;;;;;12.43;9.40;;;;;;;-2.64;100.00;96822.56;5030762;28;101903;-63
2022/03/09 01:45:55;;;;;;;15.40;9.43;;;;;;;-3.18;100.00;96813.41;5030715;28;104113;-63
2022/03/09 01:48:22;;;;;;;13.67;9.07;;;;;;;-3.34;100.00;96821.13;5029738;28;105080;-63
2022/03/09 01:50:49;;;;;;;11.90;9.10;;;;;;;-3.28;100.00;96817.91;5030525;28;101919;-63
2022/03/09 01:53:19;;;;;;;12.27;9.00;;;;;;;-3.30;100.00;96809.47;5030624;28;104870;-63
2022/03/09 01:55:46;;;;;;;12.67;8.43;;;;;;;-3.23;100.00;96807.88;5030053;28;105349;-63
2022/03/09 01:58:13;;;;;;;13.37;9.40;;;;;;;-3.08;100.00;96816.72;5034011;28;101874;-63
2022/03/09 02:00:41;;;;;;;14.10;9.43;;;;;;;-3.52;100.00;96824.75;5029970;28;105021;-63
2022/03/09 02:03:08;;;;;;;13.77;9.40;;;;;;;-3.63;100.00;96823.25;5030060;28;102303;-63
2022/03/09 02:05:35;;;;;;;12.53;8.80;;;;;;;-3.66;100.00;96823.53;5029787;27;103655;-63
2022/03/09 02:10:48;;;;;;;12.93;9.00;;;;;;;-3.40;100.00;96823.53;5030360;28;102099;-63
2022/03/09 02:13:16;;;;;;;15.23;9.40;;;;;;;-3.33;100.00;96825.34;5030176;28;105162;-63
2022/03/09 02:15:44;;;;;;;12.40;8.60;;;;;;;-3.74;100.00;96831.28;5029590;28;105271;-63
2022/03/09 02:18:11;;;;;;;13.40;9.33;;;;;;;-3.80;100.00;96831.06;5030188;28;101927;-63
2022/03/09 02:20:46;;;;;;;12.60;9.03;;;;;;;-3.75;100.00;96834.84;5033023;28;104210;-63
2022/03/09 02:23:16;;;;;;;14.13;8.87;;;;;;;-3.54;100.00;96827.53;5030371;28;101846;-63
2022/03/09 02:25:44;;;;;;;13.63;9.23;;;;;;;-3.68;100.00;96838.47;5029952;28;105259;-63
2022/03/09 02:28:11;;;;;;;14.43;9.23;;;;;;;-3.66;100.00;96843.53;5029556;28;105404;-63
2022/03/09 02:30:38;;;;;;;14.37;9.70;;;;;;;-3.71;100.00;96843.16;5029923;28;101785;-63
2022/03/09 02:33:05;;;;;;;13.93;9.47;;;;;;;-3.63;100.00;96846.63;5029967;28;105317;-63
2022/03/09 02:35:32;;;;;;;14.90;9.57;;;;;;;-3.67;100.00;96840.09;5029540;28;105621;-63
2022/03/09 02:37:59;;;;;;;12.90;8.17;;;;;;;-3.92;100.00;96843.50;5029826;28;102148;-63
2022/03/09 02:40:28;;;;;;;13.73;8.90;;;;;;;-4.00;100.00;96843.41;5030019;28;105176;-63
2022/03/09 02:42:56;;;;;;;14.20;9.13;;;;;;;-3.65;100.00;96848.53;5032669;28;105061;-63
2022/03/09 02:45:23;;;;;;;13.97;8.83;;;;;;;-3.65;100.00;96840.75;5029773;28;105240;-63
2022/03/09 02:47:50;;;;;;;11.30;8.40;;;;;;;-3.88;100.00;96836.22;5029001;28;105274;-63
2022/03/09 02:50:17;;;;;;;14.97;9.33;;;;;;;-3.81;100.00;96839.84;5029380;28;101814;-63
2022/03/09 02:52:45;;;;;;;12.33;8.83;;;;;;;-3.80;100.00;96833.66;5029725;28;105165;-63
2022/03/09 02:55:14;;;;;;;11.20;9.00;;;;;;;-3.88;100.00;96825.84;5029119;28;105791;-63
2022/03/09 02:57:43;;;;;;;13.80;8.93;;;;;;;-4.10;100.00;96813.31;5029679;28;101906;-63
2022/03/09 03:00:12;;;;;;;13.60;8.03;;;;;;;-4.23;100.00;96815.47;5029433;28;105235;-63
2022/03/09 03:02:39;;;;;;;11.87;8.80;;;;;;;-4.12;100.00;96813.47;5029010;28;105542;-63
2022/03/09 03:05:08;;;;;;;15.40;8.80;;;;;;;-4.31;100.00;96805.03;5032994;28;101941;-63
2022/03/09 03:07:35;;;;;;;12.67;8.00;;;;;;;-4.46;100.00;96816.88;5062682;27;105315;-63
2022/03/09 03:10:03;;;;;;;12.30;8.63;;;;;;;-4.43;100.00;96825.19;5031052;28;101916;-63
2022/03/09 03:12:30;;;;;;;13.37;8.67;;;;;;;-4.49;100.00;96832.72;5029456;28;104800;-63
2022/03/09 03:14:58;;;;;;;12.43;8.63;;;;;;;-4.38;100.00;96835.94;5028494;28;105474;-63
2022/03/09 03:17:25;;;;;;;14.13;9.03;;;;;;;-4.26;100.00;96839.94;5030632;28;101814;-63
2022/03/09 03:19:52;;;;;;;13.47;9.37;;;;;;;-4.31;100.00;96829.19;5029181;28;104891;-63
2022/03/09 03:22:20;;;;;;;13.43;8.63;;;;;;;-4.12;100.00;96836.84;5028619;28;106491;-63
2022/03/09 03:24:47;;;;;;;13.80;8.87;;;;;;;-4.00;100.00;96835.63;5029208;28;101864;-63
2022/03/09 03:27:14;;;;;;;11.53;8.53;;;;;;;-4.00;100.00;96838.22;5031836;28;106239;-63
2022/03/09 03:29:41;;;;;;;16.53;8.90;;;;;;;-3.98;100.00;96838.09;5029054;28;102057;-63
2022/03/09 03:32:11;;;;;;;13.80;9.40;;;;;;;-4.15;100.00;96839.72;5028803;28;105281;-63
2022/03/09 03:34:38;;;;;;;14.97;9.17;;;;;;;-4.19;100.00;96838.41;5028483;28;104166;-63
2022/03/09 03:37:05;;;;;;;13.97;9.13;;;;;;;-4.15;100.00;96844.91;5029183;28;101913;-63
2022/03/09 03:39:34;;;;;;;14.13;8.90;;;;;;;-4.11;100.00;96843.66;5028798;28;105495;-63
2022/03/09 03:42:01;;;;;;;14.33;9.13;;;;;;;-4.25;100.00;96849.34;5028532;28;103682;-63
2022/03/09 03:44:28;;;;;;;11.77;8.80;;;;;;;-4.24;100.00;96850.19;5028554;28;101850;-63
2022/03/09 03:46:55;;;;;;;13.87;8.73;;;;;;;-4.06;100.00;96844.03;5029057;28;104894;-63
2022/03/09 03:49:24;;;;;;;13.60;9.30;;;;;;;-3.89;100.00;96838.00;5031505;28;106219;-63
2022/03/09 03:51:52;;;;;;;13.43;9.97;;;;;;;-3.89;100.00;96838.00;5028766;28;105171;-63
2022/03/09 03:54:19;;;;;;;13.30;9.10;;;;;;;-4.01;100.00;96841.78;5027120;28;105688;-63
2022/03/09 03:56:46;;;;;;;13.23;9.00;;;;;;;-3.98;100.00;96853.66;5028840;28;102148;-63
2022/03/09 03:59:13;;;;;;;14.10;8.47;;;;;;;-4.02;100.00;96857.53;5028756;28;105082;-63
2022/03/09 04:01:40;;;;;;;11.80;8.07;;;;;;;-4.10;100.00;96871.25;5028003;28;104247;-63
2022/03/09 04:04:07;;;;;;;10.47;8.80;;;;;;;-3.91;100.00;96867.69;5028604;28;101687;-63
2022/03/09 04:06:36;;;;;;;12.47;8.60;;;;;;;-3.97;100.00;96874.31;5028694;28;105548;-63
2022/03/09 04:09:03;;;;;;;12.07;8.53;;;;;;;-3.94;100.00;96889.56;5031464;28;105952;-63
2022/03/09 04:11:30;;;;;;;12.77;8.60;;;;;;;-3.99;100.00;96889.19;5028478;28;105152;-63
2022/03/09 04:13:57;;;;;;;11.13;8.63;;;;;;;-3.88;100.00;96886.38;5027748;28;104699;-63
2022/03/09 04:16:24;;;;;;;14.23;8.70;;;;;;;-3.75;100.00;96888.59;5028637;28;101989;-63
2022/03/09 04:18:51;;;;;;;12.47;8.53;;;;;;;-3.71;100.00;96888.13;5028523;28;103866;-63
2022/03/09 04:21:18;;;;;;;14.50;8.87;;;;;;;-3.68;100.00;96892.22;5027906;28;104800;-63
2022/03/09 04:23:46;;;;;;;12.87;8.73;;;;;;;-3.62;100.00;96895.03;5028459;28;102645;-63
2022/03/09 04:26:13;;;;;;;13.70;9.07;;;;;;;-3.55;100.00;96898.66;5028278;28;105693;-63
2022/03/09 04:28:40;;;;;;;13.83;8.50;;;;;;;-3.61;100.00;96894.06;5029711;28;105363;-63
2022/03/09 04:31:07;;;;;;;11.53;8.80;;;;;;;-3.79;100.00;96900.25;5017898;28;101843;-63
2022/03/09 04:33:35;;;;;;;12.30;8.83;;;;;;;-3.98;100.00;96900.41;5031260;28;105076;-63
2022/03/09 04:36:01;;;;;;;12.80;9.00;;;;;;;-3.83;100.00;96910.13;5031973;28;101945;-63
2022/03/09 04:38:29;;;;;;;11.93;8.90;;;;;;;-3.74;100.00;96904.03;5033344;28;102573;-62
2022/03/09 04:40:57;;;;;;;14.97;10.33;;;;;;;-3.78;100.00;96905.28;5031181;28;105211;-63
2022/03/09 04:43:25;;;;;;;14.13;8.90;;;;;;;-4.01;100.00;96911.09;5030557;28;102105;-63
2022/03/09 04:45:53;;;;;;;11.83;9.20;;;;;;;-4.27;100.00;96905.00;5031473;28;105349;-63
2022/03/09 04:48:20;;;;;;;11.87;8.83;;;;;;;-4.13;100.00;96907.09;5031042;28;105862;-63
2022/03/09 04:50:47;;;;;;;14.27;8.47;;;;;;;-4.04;100.00;96904.41;5031558;28;101929;-63
2022/03/09 04:53:14;;;;;;;13.57;8.40;;;;;;;-4.15;100.00;96902.03;5034305;28;105366;-63
2022/03/09 04:55:40;;;;;;;12.67;8.93;;;;;;;-4.03;100.00;96906.06;5032811;28;101891;-63
2022/03/09 04:58:09;;;;;;;14.67;9.50;;;;;;;-4.05;100.00;96902.78;5065355;27;105539;-63
2022/03/09 05:00:36;;;;;;;14.27;9.90;;;;;;;-4.16;100.00;96910.78;5030983;28;104110;-63
2022/03/09 05:03:03;;;;;;;14.57;9.60;;;;;;;-4.04;100.00;96907.00;5032926;28;101803;-63
2022/03/09 05:05:30;;;;;;;12.63;9.17;;;;;;;-3.94;100.00;96914.75;5031563;28;104795;-63
2022/03/09 05:07:57;;;;;;;14.93;9.90;;;;;;;-3.95;100.00;96908.72;5032073;27;102513;-63
2022/03/09 05:10:24;;;;;;;13.47;9.60;;;;;;;-3.96;100.00;96916.66;5031271;28;102028;-63
2022/03/09 05:12:51;;;;;;;13.50;8.80;;;;;;;-4.17;100.00;96914.34;5031219;28;104986;-63
2022/03/09 05:15:20;;;;;;;12.93;9.10;;;;;;;-4.35;100.00;96913.53;5034177;28;103706;-63
2022/03/09 05:17:47;;;;;;;15.20;9.60;;;;;;;-4.25;100.00;96918.66;5031188;28;105289;-63
2022/03/09 05:20:16;;;;;;;14.37;8.60;;;;;;;-4.18;100.00;96920.50;5030431;28;105026;-63
2022/03/09 05:22:43;;;;;;;15.07;9.40;;;;;;;-4.19;100.00;96929.28;5031125;28;102011;-63
2022/03/09 05:25:11;;;;;;;13.67;9.03;;;;;;;-4.49;100.00;96915.78;5032440;28;102355;-63
2022/03/09 05:27:38;;;;;;;12.63;8.47;;;;;;;-4.50;100.00;96925.34;5030475;28;103971;-63
2022/03/09 05:30:06;;;;;;;11.60;8.77;;;;;;;-4.32;100.00;96925.41;5030985;28;101888;-62
2022/03/09 05:32:34;;;;;;;14.70;10.50;;;;;;;-4.39;100.00;96921.72;5030443;28;105273;-63
2022/03/09 05:35:01;;;;;;;15.47;9.87;;;;;;;-4.29;100.00;96918.13;5029204;28;105370;-63
2022/03/09 05:37:29;;;;;;;15.63;8.77;;;;;;;-4.28;100.00;96921.53;5035950;28;102057;-63
2022/03/09 05:39:56;;;;;;;11.70;9.37;;;;;;;-4.29;100.00;96918.13;5028917;27;105145;-63
2022/03/09 05:42:23;;;;;;;13.13;9.57;;;;;;;-4.29;100.00;96928.50;5030656;28;101980;-63
2022/03/09 05:44:50;;;;;;;13.70;9.50;;;;;;;-4.32;100.00;96928.00;5030543;28;105316;-63
2022/03/09 05:47:18;;;;;;;14.63;9.57;;;;;;;-4.41;100.00;96931.44;5029817;28;105841;-63
2022/03/09 05:49:47;;;;;;;14.90;9.20;;;;;;;-4.60;100.00;96936.72;5030585;28;101914;-63
2022/03/09 05:52:14;;;;;;;15.33;9.30;;;;;;;-4.66;100.00;96930.34;5030579;28;105173;-63
2022/03/09 05:54:41;;;;;;;15.63;9.37;;;;;;;-4.37;100.00;96930.22;5029921;28;105368;-63
2022/03/09 05:57:08;;;;;;;15.33;9.83;;;;;;;-4.10;100.00;96938.75;5030722;28;101957;-63
2022/03/09 05:59:35;;;;;;;13.47;9.90;;;;;;;-3.98;100.00;96937.56;5032803;28;104862;-63
2022/03/09 06:02:02;;;;;;;12.80;9.43;;;;;;;-3.95;100.00;96932.09;5032081;28;102031;-63
2022/03/09 06:04:29;;;;;;;13.40;9.37;;;;;;;-3.94;100.00;96928.53;5032238;28;102367;-63
2022/03/09 06:06:57;;;;;;;15.67;9.50;;;;;;;-3.98;100.00;96923.78;5031075;28;102636;-62
2022/03/09 06:09:35;;;;;;;10.87;8.37;;;;;;;-3.99;100.00;96920.38;5030281;28;102172;-62
2022/03/09 06:12:05;;;;;;;12.37;8.40;;;;;;;-3.88;100.00;96920.13;5017768;28;102413;-62
2022/03/09 06:14:32;;;;;;;12.73;9.30;;;;;;;-3.70;100.00;96923.56;5030021;28;105831;-62
2022/03/09 06:16:59;;;;;;;14.47;9.77;;;;;;;-3.65;100.00;96928.31;5030026;28;101997;-62
2022/03/09 06:19:42;;;;;;;19.13;10.10;;;;;;;-3.62;100.00;96933.19;5033099;28;104791;-62
2022/03/09 06:22:11;;;;;;;15.57;9.30;;;;;;;-3.56;100.00;96933.41;5029164;28;101856;-62
2022/03/09 06:24:38;;;;;;;14.23;10.53;;;;;;;-3.31;100.00;96927.44;5031365;28;102361;-62
2022/03/09 06:27:05;;;;;;;16.73;11.10;;;;;;;-3.22;100.00;96933.50;5029049;28;105048;-62
2022/03/09 06:29:39;;;;;;;15.30;10.77;;;;;;;-3.20;100.00;96924.59;5030452;28;101827;-62
2022/03/09 06:32:06;;;;;;;17.87;11.53;;;;;;;-3.19;100.00;96930.59;5028011;28;105383;-62
2022/03/09 06:34:33;;;;;;;17.97;12.10;;;;;;;-2.93;100.00;96916.63;5028532;28;105286;-62
2022/03/09 06:37:00;;;;;;;17.67;11.90;;;;;;;-2.85;100.00;96921.84;5029937;28;101820;-62
2022/03/09 06:39:46;;;;;;;17.87;13.07;;;;;;;-2.71;100.00;96926.50;5028457;28;103942;-62
2022/03/09 06:42:28;;;;;;;25.10;15.53;;;;;;;-2.73;100.00;96930.22;5031377;28;105305;-63
2022/03/09 06:44:55;;;;;;;33.20;19.57;;;;;;;-2.42;100.00;96926.09;5028685;28;105003;-62
2022/03/09 06:47:22;;;;;;;28.73;18.37;;;;;;;-2.24;100.00;96932.84;5027693;28;105021;-62
2022/03/09 06:49:50;;;;;;;29.87;17.10;;;;;;;-2.12;100.00;96933.38;5028432;28;101965;-62
2022/03/09 06:52:18;;;;;;;30.70;16.50;;;;;;;-2.02;100.00;96939.28;5028309;28;105215;-62
2022/03/09 06:54:47;;;;;;;19.23;13.13;;;;;;;-1.75;100.00;96941.59;5028023;28;105385;-62
2022/03/09 06:57:14;;;;;;;16.70;11.40;;;;;;;-1.62;100.00;96941.94;5028751;28;101887;-62
2022/03/09 06:59:42;;;;;;;16.90;11.40;;;;;;;-1.55;100.00;96932.47;5028612;28;104938;-62
2022/03/09 07:02:09;;;;;;;22.00;14.50;;;;;;;-1.45;100.00;96931.34;5028462;28;105709;-62
2022/03/09 07:04:36;;;;;;;17.07;12.00;;;;;;;-1.27;100.00;96928.59;5031810;28;102198;-62
2022/03/09 07:07:03;;;;;;;16.17;11.83;;;;;;;-1.10;100.00;96928.38;5027951;28;106562;-62
2022/03/09 07:09:33;;;;;;;15.67;11.37;;;;;;;-0.85;100.00;96919.53;5028535;28;101901;-62
2022/03/09 07:12:17;;;;;;;15.10;10.13;;;;;;;-0.65;100.00;96927.78;5028729;28;105002;-62
2022/03/09 07:14:45;;;;;;;18.03;10.87;;;;;;;-0.48;100.00;96930.19;5011241;28;105592;-62
2022/03/09 07:17:12;;;;;;;14.67;10.57;;;;;;;-0.24;100.00;96937.13;5027710;28;103652;-62
2022/03/09 07:19:40;;;;;;;13.17;10.40;;;;;;;-0.08;100.00;96940.47;5028211;28;104944;-62
2022/03/09 07:22:07;;;;;;;13.80;8.67;;;;;;;0.06;100.00;96940.53;5027902;28;104287;-62
2022/03/09 07:24:34;;;;;;;13.07;8.27;;;;;;;0.21;100.00;96940.59;5029171;28;101879;-62
2022/03/09 07:27:01;;;;;;;13.70;9.37;;;;;;;0.28;100.00;96934.53;5032097;28;103963;-62
2022/03/09 07:29:35;;;;;;;12.33;9.10;;;;;;;0.53;100.00;96945.63;5026023;28;101981;-62
2022/03/09 07:32:03;;;;;;;19.00;10.60;;;;;;;0.49;100.00;96953.03;5015816;28;105216;-62
2022/03/09 07:34:30;;;;;;;11.23;8.97;;;;;;;0.69;100.00;96956.81;5027949;28;104278;-62
2022/03/09 07:36:58;;;;;;;13.23;9.27;;;;;;;0.86;100.00;96960.09;5029107;28;101848;-62
2022/03/09 07:39:34;;;;;;;11.17;8.33;;;;;;;1.11;100.00;96966.75;5063191;27;103963;-62
2022/03/09 07:42:01;;;;;;;12.07;8.53;;;;;;;1.20;100.00;96974.34;5028058;28;105396;-62
2022/03/09 07:44:30;;;;;;;9.50;7.77;;;;;;;1.43;100.00;96969.84;5062871;27;101826;-62
2022/03/09 07:46:57;;;;;;;11.53;8.40;;;;;;;1.59;100.00;96974.13;5028647;28;105182;-62
2022/03/09 07:49:25;;;;;;;10.20;8.03;;;;;;;1.68;100.00;96978.28;5031671;28;105755;-62
2022/03/09 07:51:52;;;;;;;11.27;8.40;;;;;;;1.88;100.00;96977.56;5029209;28;104794;-62
2022/03/09 07:54:19;;;;;;;11.33;8.73;;;;;;;2.01;100.00;96980.34;5028343;28;105423;-62
2022/03/09 07:56:47;;;;;;;11.53;8.37;;;;;;;2.11;100.00;96980.06;5028451;28;102026;-62
2022/03/09 08:02:45;;;;;;;10.77;7.47;;;;;;;1.97;100.00;96980.91;5027353;28;105869;-62
2022/03/09 08:05:12;;;;;;;13.30;7.93;;;;;;;2.02;100.00;96981.16;5062664;27;101962;-62
2022/03/09 08:07:42;;;;;;;10.63;7.23;;;;;;;2.28;100.00;96992.78;5028834;28;105120;-62
2022/03/09 08:10:10;;;;;;;9.57;7.57;;;;;;;2.49;100.00;96990.19;5027851;28;105047;-62
2022/03/09 08:12:42;;;;;;;9.07;7.77;;;;;;;2.67;100.00;96989.78;5031345;28;102077;-62
2022/03/09 08:15:10;;;;;;;11.93;7.70;;;;;;;2.69;100.00;96988.56;5028306;28;105021;-63
2022/03/09 08:18:13;;;;;;;12.97;8.40;;;;;;;2.69;100.00;96985.16;5028412;28;102073;-63
2022/03/09 08:20:40;;;;;;;11.97;7.53;;;;;;;2.88;100.00;96981.88;5021279;28;102460;-62
2022/03/09 08:23:08;;;;;;;9.70;7.63;;;;;;;3.06;100.00;96980.44;5027005;28;103753;-64
2022/03/09 08:25:36;;;;;;;11.77;8.33;;;;;;;3.36;100.00;96987.16;5027274;28;102155;-63
2022/03/09 08:28:03;;;;;;;17.13;10.13;;;;;;;3.44;100.00;96994.09;5026916;28;103667;-63
2022/03/09 08:30:30;;;;;;;15.57;9.90;;;;;;;3.44;100.00;96989.63;5026745;28;105693;-62
2022/03/09 08:32:58;;;;;;;16.27;10.10;;;;;;;3.39;100.00;96989.41;5030892;28;102019;-63
2022/03/09 08:35:27;;;;;;;12.27;8.70;;;;;;;3.19;98.27;96982.38;5028575;28;102611;-63
2022/03/09 08:37:56;;;;;;;10.63;8.10;;;;;;;3.13;98.30;96977.88;5028651;28;101856;-63
2022/03/09 08:40:23;;;;;;;13.40;8.90;;;;;;;3.24;91.94;96991.31;5011774;28;105108;-63
2022/03/09 08:42:59;;;;;;;11.37;7.63;;;;;;;3.41;88.79;96983.97;5027984;28;105229;-63
2022/03/09 08:45:26;;;;;;;13.23;7.53;;;;;;;3.45;87.89;96982.59;5028167;28;101935;-63
2022/03/09 08:47:58;;;;;;;9.00;7.13;;;;;;;3.54;84.74;96987.50;5028433;28;105757;-63
2022/03/09 08:50:27;;;;;;;11.67;8.23;;;;;;;3.38;82.80;96993.03;5027341;28;105309;-63
2022/03/09 08:52:54;;;;;;;12.23;8.47;;;;;;;3.92;91.56;96996.63;5024483;28;102033;-63
2022/03/09 08:55:21;;;;;;;11.70;7.43;;;;;;;3.95;82.70;96995.44;5028036;28;105285;-63
2022/03/09 08:57:55;;;;;;;11.73;7.90;;;;;;;4.12;82.78;96989.66;5027471;28;101897;-63
2022/03/09 09:00:22;;;;;;;10.47;8.20;;;;;;;4.39;79.46;96993.22;5029900;28;101708;-63
2022/03/09 09:02:49;;;;;;;11.53;8.23;;;;;;;4.68;74.75;96996.34;5026980;28;105706;-62
2022/03/09 09:05:16;;;;;;;11.23;7.70;;;;;;;5.03;75.90;96991.75;5027474;28;102455;-62
2022/03/09 09:08:19;;;;;;;9.40;7.77;;;;;;;5.39;74.46;96990.34;5027768;28;103959;-62
2022/03/09 09:11:13;;;;;;;10.20;7.40;;;;;;;5.43;70.07;97006.56;5026877;28;105036;-62
2022/03/09 09:13:41;;;;;;;12.73;7.30;;;;;;;5.38;73.07;96991.38;5013058;27;101764;-61
2022/03/09 09:16:08;;;;;;;11.53;7.53;;;;;;;5.80;74.40;96990.13;5031619;28;105051;-61
2022/03/09 09:18:44;;;;;;;11.67;7.07;;;;;;;5.82;70.31;96991.56;5034353;28;105051;-61
2022/03/09 09:21:11;;;;;;;10.80;6.80;;;;;;;6.12;65.40;96995.31;5031314;28;105661;-61
2022/03/09 09:23:41;;;;;;;10.37;7.13;;;;;;;6.12;62.19;96994.53;5030128;28;105794;-62
2022/03/09 09:26:07;;;;;;;11.27;7.20;;;;;;;6.21;62.42;96982.72;5031276;28;101897;-61
2022/03/09 09:28:43;;;;;;;11.07;7.23;;;;;;;6.23;60.28;96986.75;5031382;28;102869;-62
2022/03/09 09:31:11;;;;;;;10.47;7.23;;;;;;;6.39;61.25;96982.84;5030201;28;103879;-62
2022/03/09 09:33:38;;;;;;;10.30;6.97;;;;;;;6.00;62.18;96991.72;5031998;28;101782;-60
2022/03/09 09:36:06;;;;;;;10.43;6.77;;;;;;;6.22;58.84;96984.34;5032588;28;102754;-61
2022/03/09 09:38:42;;;;;;;10.53;7.20;;;;;;;6.32;62.42;96979.44;5030611;28;105159;-61
2022/03/09 09:41:26;;;;;;;10.00;7.27;;;;;;;6.48;58.71;96978.94;5034637;28;102166;-61
2022/03/09 09:43:53;;;;;;;8.40;6.97;;;;;;;6.54;55.91;96978.91;5030565;28;105320;-61
2022/03/09 09:46:20;;;;;;;9.67;7.03;;;;;;;6.35;56.90;96977.19;5030931;28;101932;-61
2022/03/09 09:48:51;;;;;;;9.97;7.77;;;;;;;5.77;57.38;96974.66;5031109;28;103851;-62
2022/03/09 09:51:18;;;;;;;8.60;7.40;;;;;;;6.36;57.89;96967.41;5010083;28;105594;-62
2022/03/09 09:53:47;;;;;;;8.10;7.07;;;;;;;6.62;57.92;96969.94;5012196;28;101782;-61
2022/03/09 09:56:14;;;;;;;10.20;7.00;;;;;;;6.87;57.17;96957.59;5044743;27;105533;-61
2022/03/09 09:58:49;;;;;;;9.27;7.53;;;;;;;7.26;54.24;96967.91;5010285;28;105867;-60
2022/03/09 10:01:17;;;;;;;9.40;7.43;;;;;;;7.66;54.65;96963.88;5044389;27;103443;-61
2022/03/09 10:03:43;;;;;;;11.50;7.10;;;;;;;7.90;53.35;96961.19;5014986;28;102614;-61
2022/03/09 10:06:11;;;;;;;9.00;6.67;;;;;;;8.05;50.89;96958.19;5011986;28;101819;-61
2022/03/09 10:08:40;;;;;;;16.07;8.03;;;;;;;8.34;51.82;96958.28;5010601;28;106046;-62
2022/03/09 10:11:19;;;;;;;25.87;8.00;;;;;;;8.23;50.36;96955.56;4993615;28;105074;-62
2022/03/09 10:13:48;;;;;;;9.23;6.50;;;;;;;8.25;49.86;96948.22;5014154;28;102103;-62
2022/03/09 10:16:18;;;;;;;9.73;6.87;;;;;;;8.77;47.87;96958.16;5031870;27;102793;-62
2022/03/09 10:18:56;;;;;;;22.40;11.03;;;;;;;8.75;47.54;96961.03;5031378;28;102823;-62
2022/03/09 10:21:26;;;;;;;36.90;16.40;;;;;;;9.15;47.43;96948.78;5031210;28;101649;-62
2022/03/09 10:23:59;;;;;;;10.03;5.90;;;;;;;9.47;44.37;96950.13;5030843;27;102506;-62
2022/03/09 10:26:31;;;;;;;6.77;6.00;;;;;;;9.52;42.30;96952.06;5033592;27;101650;-62
2022/03/09 10:29:32;;;;;;;9.07;6.90;;;;;;;9.65;43.26;96951.88;5029942;28;105646;-63
2022/03/09 10:32:01;;;;;;;10.33;6.80;;;;;;;9.69;42.91;96943.19;5028337;27;103352;-63
2022/03/09 10:34:29;;;;;;;7.73;6.20;;;;;;;9.52;43.14;96950.25;5023586;28;102007;-64
2022/03/09 10:36:59;;;;;;;8.13;6.60;;;;;;;9.52;43.65;96949.41;5031801;27;102861;-64
2022/03/09 10:39:30;;;;;;;11.90;7.40;;;;;;;9.88;44.15;96947.34;5030886;27;104052;-65
2022/03/09 10:42:05;;;;;;;8.00;6.60;;;;;;;10.08;41.24;96944.38;5030249;28;101801;-63
2022/03/09 10:44:46;;;;;;;9.17;6.63;;;;;;;9.10;41.45;96943.34;5030835;28;101859;-63
2022/03/09 10:47:28;;;;;;;9.57;7.00;;;;;;;9.43;43.34;96938.34;5034277;28;102517;-64
2022/03/09 10:50:07;;;;;;;8.37;7.07;;;;;;;10.26;44.26;96942.34;5029732;28;105791;-63
2022/03/09 10:52:46;;;;;;;7.60;6.80;;;;;;;10.23;40.62;96944.66;5031041;28;103141;-63
2022/03/09 10:55:28;;;;;;;8.07;6.30;;;;;;;9.92;40.75;96947.72;5031310;28;101862;-63
2022/03/09 10:58:19;;;;;;;7.10;6.27;;;;;;;9.95;42.41;96939.25;5031124;27;102512;-63
2022/03/09 11:00:48;;;;;;;6.57;5.87;;;;;;;9.92;38.97;96937.88;5028017;27;102693;-63
2022/03/09 11:03:16;;;;;;;8.50;6.43;;;;;;;9.57;37.99;96934.44;5030997;28;101890;-63
2022/03/09 11:05:52;;;;;;;8.43;6.67;;;;;;;9.76;39.19;96930.59;5031052;27;102280;-63
2022/03/09 11:08:20;;;;;;;12.13;7.47;;;;;;;9.41;39.52;96929.81;5028972;28;105783;-63
2022/03/09 11:11:08;;;;;;;8.50;6.93;;;;;;;10.31;40.94;96925.72;5033310;28;102167;-63
2022/03/09 11:13:38;;;;;;;9.13;6.67;;;;;;;10.05;39.53;96920.91;5030271;28;102809;-63
2022/03/09 11:16:07;;;;;;;7.27;6.50;;;;;;;10.58;39.08;96924.13;5031275;28;101815;-63
2022/03/09 11:18:39;;;;;;;11.00;6.63;;;;;;;10.69;38.74;96921.41;5029138;28;105369;-63
2022/03/09 11:21:08;;;;;;;10.77;6.97;;;;;;;10.71;37.43;96919.31;5028977;28;104960;-63
2022/03/09 11:23:38;;;;;;;12.40;6.80;;;;;;;11.00;38.71;96914.78;5029911;27;103297;-63
2022/03/09 11:26:10;;;;;;;7.83;6.60;;;;;;;11.42;37.53;96924.81;5063579;27;105908;-63
2022/03/09 11:28:44;;;;;;;8.07;6.60;;;;;;;11.28;36.60;96912.88;5030082;28;102722;-63